Time;durP1;ratioP1;P1;durP2;ratioP2;P2;SDS_P1;SDS_P2;PMS_P1;PMS_P2;Temp;Humidity;BMP_temperature;BMP_pressure;BME280_temperature;BME280_humidity;BME280_pressure;Samples;Min_cycle;Max_cycle;Signal;HPM_P1;HPM_P2
2023/03/08 00:00:12;;;;;;;56.85;33.35;;;;;;;4.74;81.96;98662.19;5072951;28;20028;-78
2023/03/08 00:02:37;;;;;;;;;;;;;;;4.81;81.65;98674.78;5052293;28;20479;-78
2023/03/08 00:05:06;;;;;;;64.18;36.42;;;;;;;4.75;84.10;98674.09;5065287;28;20007;-78
2023/03/08 00:07:32;;;;;;;66.87;33.67;;;;;;;4.94;82.03;98668.34;5066591;28;20029;-78
2023/03/08 00:09:58;;;;;;;46.40;28.27;;;;;;;4.53;82.67;98667.41;5058230;28;20052;-78
2023/03/08 00:12:23;;;;;;;57.17;32.13;;;;;;;4.39;84.27;98670.22;5051510;28;20044;-78
2023/03/08 00:14:49;;;;;;;61.85;32.47;;;;;;;4.51;84.33;98661.38;5070724;28;20048;-78
2023/03/08 00:17:16;;;;;;;57.45;32.92;;;;;;;4.52;84.71;98668.53;5058300;28;20036;-78
2023/03/08 00:19:42;;;;;;;50.30;27.52;;;;;;;4.96;84.34;98659.72;5051056;28;20028;-78
2023/03/08 00:22:08;;;;;;;54.13;32.00;;;;;;;5.22;82.00;98681.22;5052584;28;20037;-78
2023/03/08 00:24:34;;;;;;;52.78;29.95;;;;;;;5.42;81.29;98674.28;5052007;28;20029;-78
2023/03/08 00:26:59;;;;;;;48.05;28.73;;;;;;;4.57;80.85;98675.91;5051105;28;20033;-78
2023/03/08 00:29:25;;;;;;;47.00;27.77;;;;;;;4.90;82.16;98665.38;5052252;28;20474;-78
2023/03/08 00:31:50;;;;;;;52.60;29.13;;;;;;;5.25;79.70;98673.06;5052232;28;20151;-78
2023/03/08 00:34:16;;;;;;;50.38;28.33;;;;;;;5.48;79.25;98687.69;5052449;28;20093;-79
2023/03/08 00:36:42;;;;;;;48.08;29.25;;;;;;;5.67;78.16;98686.63;5052261;28;20046;-78
2023/03/08 00:39:10;;;;;;;56.58;28.42;;;;;;;5.89;76.97;98680.16;5068158;28;20055;-78
2023/03/08 00:41:35;;;;;;;52.20;29.05;;;;;;;5.94;77.15;98681.13;5072685;28;20094;-78
2023/03/08 00:44:01;;;;;;;48.70;29.08;;;;;;;5.78;76.18;98673.25;5069415;28;20032;-78
2023/03/08 00:46:26;;;;;;;44.20;26.83;;;;;;;5.19;78.31;98679.88;5070969;28;20023;-78
2023/03/08 00:48:52;;;;;;;56.08;30.90;;;;;;;5.19;79.53;98668.78;5071903;28;20020;-78
2023/03/08 00:51:19;;;;;;;58.65;32.28;;;;;;;4.95;80.04;98663.59;5070606;28;20039;-78
2023/03/08 00:53:45;;;;;;;57.28;33.35;;;;;;;4.54;81.64;98673.78;5070336;28;20032;-78
2023/03/08 00:56:10;;;;;;;59.25;33.88;;;;;;;4.16;83.91;98670.22;5071991;28;20024;-78
2023/03/08 00:58:38;;;;;;;52.13;28.92;;;;;;;3.83;85.41;98664.03;5070671;28;20143;-78
2023/03/08 01:01:04;;;;;;;48.08;27.00;;;;;;;3.94;85.43;98673.75;5070858;28;20036;-78
2023/03/08 01:03:30;;;;;;;46.55;22.58;;;;;;;4.08;83.71;98677.28;5071658;28;20053;-78
2023/03/08 01:05:57;;;;;;;41.22;24.05;;;;;;;4.52;83.32;98684.34;5071519;28;20468;-78
2023/03/08 01:08:24;;;;;;;40.63;23.92;;;;;;;4.71;81.37;98676.66;5071564;28;20054;-78
2023/03/08 01:10:56;;;;;;;41.45;24.10;;;;;;;4.90;79.44;98679.22;5057537;28;20028;-78
2023/03/08 01:13:24;;;;;;;38.22;22.00;;;;;;;4.74;79.14;98670.50;5071512;28;20058;-78
2023/03/08 01:15:49;;;;;;;40.28;20.98;;;;;;;4.33;80.68;98672.28;5070038;28;20384;-78
2023/03/08 01:18:16;;;;;;;35.67;17.92;;;;;;;4.20;81.86;98670.41;5070739;28;20107;-78
2023/03/08 01:20:41;;;;;;;25.67;15.02;;;;;;;4.24;81.48;98671.44;5069718;28;20528;-78
2023/03/08 01:23:07;;;;;;;26.98;14.05;;;;;;;4.34;81.36;98671.19;5071099;28;20114;-78
2023/03/08 01:25:33;;;;;;;25.75;13.27;;;;;;;4.27;81.71;98669.97;5068259;28;20024;-78
2023/03/08 01:27:58;;;;;;;25.25;15.15;;;;;;;4.21;82.31;98674.78;5069835;28;20039;-78
2023/03/08 01:30:24;;;;;;;24.98;15.48;;;;;;;4.14;82.62;98668.88;5068724;28;20686;-78
2023/03/08 01:32:49;;;;;;;25.05;14.75;;;;;;;4.46;82.96;98669.78;5054635;28;20025;-78
2023/03/08 01:35:15;;;;;;;20.15;12.40;;;;;;;4.45;80.73;98663.44;5071302;28;20048;-78
2023/03/08 01:37:40;;;;;;;23.10;12.40;;;;;;;4.41;81.03;98678.22;5071265;28;20021;-78
2023/03/08 01:40:07;;;;;;;22.08;13.88;;;;;;;4.21;81.41;98672.03;5070463;28;20056;-78
2023/03/08 01:42:33;;;;;;;23.83;13.73;;;;;;;4.08;81.36;98674.53;5050772;28;20431;-78
2023/03/08 01:45:02;;;;;;;20.00;12.60;;;;;;;3.95;82.38;98674.56;5055944;28;20060;-79
2023/03/08 01:47:31;;;;;;;18.52;12.52;;;;;;;3.75;83.03;98663.63;5059656;28;20111;-79
2023/03/08 01:50:05;;;;;;;26.80;12.88;;;;;;;3.72;83.79;98675.31;5051036;28;20082;-78
2023/03/08 01:52:36;;;;;;;17.83;11.50;;;;;;;3.92;83.08;98678.78;5067099;28;20047;-78
2023/03/08 01:55:04;;;;;;;21.52;13.73;;;;;;;3.73;83.62;98671.41;5067295;28;20057;-78
2023/03/08 01:57:54;;;;;;;24.05;13.13;;;;;;;3.90;82.52;98672.72;5071210;28;20040;-78
2023/03/08 02:00:21;;;;;;;23.50;13.50;;;;;;;4.16;82.05;98672.16;5071055;28;20032;-79
2023/03/08 02:02:51;;;;;;;20.98;13.55;;;;;;;4.47;81.14;98674.22;5071970;28;20103;-78
2023/03/08 02:05:17;;;;;;;20.92;12.82;;;;;;;4.65;79.34;98666.88;5061730;28;20078;-78
2023/03/08 02:07:43;;;;;;;23.35;14.32;;;;;;;4.38;78.89;98656.72;5049589;28;20098;-78
2023/03/08 02:10:10;;;;;;;25.02;15.52;;;;;;;4.59;78.42;98654.25;5065015;28;20040;-78
2023/03/08 02:12:37;;;;;;;22.88;12.90;;;;;;;4.75;78.08;98663.81;5052619;28;20025;-78
2023/03/08 02:15:06;;;;;;;21.65;13.38;;;;;;;4.59;77.20;98659.78;5060141;28;20135;-78
2023/03/08 02:17:36;;;;;;;25.90;15.23;;;;;;;4.05;79.05;98661.31;5071155;28;20020;-79
2023/03/08 02:20:09;;;;;;;39.75;21.52;;;;;;;3.56;81.29;98669.28;5069744;28;20036;-79
2023/03/08 02:22:39;;;;;;;35.33;19.45;;;;;;;3.53;82.46;98669.88;5053228;28;20421;-78
2023/03/08 02:25:25;;;;;;;31.58;17.77;;;;;;;3.63;82.22;98674.41;5060019;28;20032;-79
2023/03/08 02:27:52;;;;;;;38.13;18.48;;;;;;;3.55;83.32;98680.66;5072346;28;20085;-78
2023/03/08 02:30:31;;;;;;;33.38;18.83;;;;;;;3.70;82.56;98680.31;5069713;28;20103;-79
2023/03/08 02:32:56;;;;;;;37.60;20.27;;;;;;;3.34;83.61;98673.59;5069438;28;20111;-79
2023/03/08 02:35:22;;;;;;;49.22;24.25;;;;;;;3.25;84.94;98674.59;5070925;28;20539;-79
2023/03/08 02:37:48;;;;;;;47.38;23.20;;;;;;;3.44;84.15;98682.78;5069974;28;20031;-79
2023/03/08 02:40:14;;;;;;;48.58;25.38;;;;;;;3.22;85.10;98704.47;5071353;28;20107;-79
2023/03/08 02:42:39;;;;;;;53.10;28.35;;;;;;;3.06;86.89;98692.88;5074370;28;20372;-79
2023/03/08 02:45:06;;;;;;;38.63;21.10;;;;;;;2.97;87.07;98697.50;5070051;28;20051;-80
2023/03/08 02:47:32;;;;;;;30.50;16.48;;;;;;;3.15;86.38;98693.03;5074476;28;20452;-80
2023/03/08 02:49:57;;;;;;;27.60;15.88;;;;;;;3.23;85.68;98688.72;5074232;28;20410;-79
2023/03/08 02:52:23;;;;;;;35.65;18.42;;;;;;;3.36;84.36;98700.91;5074051;28;20028;-79
2023/03/08 02:54:48;;;;;;;32.33;17.55;;;;;;;3.40;83.81;98698.34;5073806;28;20518;-79
2023/03/08 02:57:13;;;;;;;35.15;19.15;;;;;;;3.47;83.58;98694.06;5065482;28;20021;-79
2023/03/08 02:59:39;;;;;;;33.60;19.25;;;;;;;3.22;84.40;98693.41;5067771;28;20031;-79
2023/03/08 03:02:04;;;;;;;31.63;19.00;;;;;;;3.27;83.86;98688.94;5071438;28;20039;-78
2023/03/08 03:04:32;;;;;;;55.70;20.45;;;;;;;3.51;83.66;98694.25;5072391;28;20032;-78
2023/03/08 03:06:58;;;;;;;34.55;20.70;;;;;;;3.47;82.84;98691.28;5072885;28;20036;-78
2023/03/08 03:09:23;;;;;;;34.45;19.67;;;;;;;3.14;84.06;98691.38;5073338;28;20021;-79
2023/03/08 03:11:49;;;;;;;36.42;19.20;;;;;;;3.11;84.36;98691.97;5072175;28;20028;-79
2023/03/08 03:14:14;;;;;;;31.63;17.88;;;;;;;3.08;84.73;98693.41;5073970;28;20028;-79
2023/03/08 03:16:40;;;;;;;29.55;17.40;;;;;;;3.32;84.95;98697.13;5073371;28;20399;-79
2023/03/08 03:19:05;;;;;;;35.30;19.20;;;;;;;3.20;83.94;98695.69;5072984;28;20051;-79
2023/03/08 03:21:31;;;;;;;29.15;17.52;;;;;;;2.97;85.00;98693.88;5060799;28;20028;-79
2023/03/08 03:23:57;;;;;;;39.92;18.70;;;;;;;3.03;84.68;98695.44;5072094;28;20055;-79
2023/03/08 03:26:24;;;;;;;35.42;21.27;;;;;;;2.99;85.84;98706.28;5073647;28;20089;-79
2023/03/08 03:28:51;;;;;;;36.33;21.80;;;;;;;2.73;86.49;98703.13;5071621;28;20032;-79
2023/03/08 03:31:21;;;;;;;32.78;19.42;;;;;;;2.64;86.63;98711.28;5069989;28;20048;-78
2023/03/08 03:33:48;;;;;;;31.13;17.92;;;;;;;2.60;86.28;98711.06;5068721;28;20040;-79
2023/03/08 03:36:16;;;;;;;37.75;21.05;;;;;;;2.58;86.05;98721.59;5074076;28;20044;-80
2023/03/08 03:38:42;;;;;;;26.88;16.10;;;;;;;2.63;86.01;98721.50;5072015;28;20025;-79
2023/03/08 03:41:10;;;;;;;26.45;15.15;;;;;;;2.48;86.22;98724.50;5065583;28;20537;-79
2023/03/08 03:43:36;;;;;;;24.88;15.07;;;;;;;2.36;86.95;98730.50;5053321;28;20405;-80
2023/03/08 03:46:06;;;;;;;27.23;17.08;;;;;;;2.21;87.86;98728.78;5065111;28;20103;-80
2023/03/08 03:48:33;;;;;;;28.48;16.10;;;;;;;2.19;88.22;98739.28;5072649;28;20103;-80
2023/03/08 03:51:04;;;;;;;33.00;18.58;;;;;;;2.41;87.04;98743.38;5071038;28;20037;-79
2023/03/08 03:53:31;;;;;;;25.33;15.75;;;;;;;2.15;87.61;98749.25;5072654;28;20033;-80
2023/03/08 03:56:12;;;;;;;25.02;15.50;;;;;;;2.28;87.79;98756.81;5072881;28;20455;-80
2023/03/08 03:58:38;;;;;;;30.60;16.77;;;;;;;2.29;87.96;98747.41;5072428;28;20034;-80
2023/03/08 04:01:08;;;;;;;36.90;19.98;;;;;;;2.23;87.84;98749.44;5072845;28;20016;-80
2023/03/08 04:03:34;;;;;;;29.95;19.30;;;;;;;2.48;88.21;98746.59;5056821;28;20048;-79
2023/03/08 04:06:13;;;;;;;23.67;14.30;;;;;;;2.64;86.77;98744.44;5067232;28;20067;-79
2023/03/08 04:08:42;;;;;;;23.15;13.55;;;;;;;2.43;87.12;98760.47;5066072;28;20026;-80
2023/03/08 04:11:13;;;;;;;27.75;14.23;;;;;;;2.38;86.64;98748.38;5053906;28;20072;-80
2023/03/08 04:13:39;;;;;;;22.33;13.93;;;;;;;2.03;88.57;98767.06;5053094;28;20136;-80
2023/03/08 04:16:13;;;;;;;26.15;14.70;;;;;;;1.88;89.62;98773.59;5071763;28;20044;-79
2023/03/08 04:18:38;;;;;;;33.85;17.63;;;;;;;1.87;89.78;98769.22;5051313;28;20039;-81
2023/03/08 04:21:05;;;;;;;25.75;15.18;;;;;;;1.89;90.62;98768.91;5067301;28;20029;-81
2023/03/08 04:23:31;;;;;;;27.38;16.20;;;;;;;1.93;90.53;98773.53;5071822;28;20032;-79
2023/03/08 04:25:56;;;;;;;37.55;20.00;;;;;;;2.00;90.23;98775.13;5081012;28;20024;-80
2023/03/08 04:28:22;;;;;;;41.50;23.23;;;;;;;1.93;90.15;98767.19;5066350;28;20056;-81
2023/03/08 04:30:47;;;;;;;40.95;24.85;;;;;;;1.94;89.79;98771.63;5052000;28;20028;-80
2023/03/08 04:33:13;;;;;;;51.60;29.63;;;;;;;1.88;90.16;98773.59;5055364;28;20344;-80
2023/03/08 04:35:38;;;;;;;62.97;29.88;;;;;;;1.70;91.29;98771.59;5061368;28;20025;-81
2023/03/08 04:38:04;;;;;;;59.97;31.02;;;;;;;1.70;90.91;98772.44;5071599;28;20162;-81
2023/03/08 04:40:29;;;;;;;47.92;24.60;;;;;;;1.70;91.71;98769.69;5069666;28;20427;-81
2023/03/08 04:42:55;;;;;;;32.00;17.92;;;;;;;1.59;91.42;98782.75;5071702;28;20040;-82
2023/03/08 04:45:21;;;;;;;34.97;20.75;;;;;;;1.45;91.64;98770.78;5071281;28;20406;-83
2023/03/08 04:47:46;;;;;;;24.63;16.45;;;;;;;1.32;92.14;98766.75;5071996;28;20028;-80
2023/03/08 04:50:12;;;;;;;31.58;18.27;;;;;;;1.17;93.49;98760.28;5071710;28;20043;-75
2023/03/08 04:52:38;;;;;;;32.42;19.60;;;;;;;1.30;93.89;98766.22;5064669;28;20040;-76
2023/03/08 04:55:04;;;;;;;40.30;22.65;;;;;;;1.39;92.83;98770.84;5060888;28;20021;-76
2023/03/08 04:57:30;;;;;;;35.22;20.17;;;;;;;1.52;92.17;98766.56;5066103;28;20040;-74
2023/03/08 04:59:55;;;;;;;41.35;19.98;;;;;;;1.52;91.92;98772.06;5070110;28;20418;-77
2023/03/08 05:02:22;;;;;;;31.83;18.05;;;;;;;1.51;92.74;98775.94;5065726;28;20477;-75
2023/03/08 05:04:48;;;;;;;35.45;18.83;;;;;;;1.59;92.02;98757.13;5066695;28;20032;-75
2023/03/08 05:07:13;;;;;;;38.78;21.95;;;;;;;1.60;91.67;98772.56;5050717;28;20126;-80
2023/03/08 05:09:39;;;;;;;46.90;26.73;;;;;;;1.37;91.75;98762.00;5067581;28;20466;-78
2023/03/08 05:12:05;;;;;;;38.63;24.00;;;;;;;1.57;91.98;98768.44;5059797;28;20547;-77
2023/03/08 05:14:30;;;;;;;48.85;26.92;;;;;;;1.60;91.41;98761.53;5047556;28;20458;-75
2023/03/08 05:16:56;;;;;;;46.28;27.70;;;;;;;1.86;91.55;98764.78;5052967;28;20369;-76
2023/03/08 05:19:22;;;;;;;43.00;25.38;;;;;;;1.93;90.71;98764.44;5066699;28;20062;-76
2023/03/08 05:21:48;;;;;;;34.47;21.20;;;;;;;2.12;90.46;98766.41;5069954;28;20574;-75
2023/03/08 05:24:14;;;;;;;52.65;25.85;;;;;;;2.21;89.46;98764.63;5067916;28;20108;-79
2023/03/08 05:26:39;;;;;;;44.03;23.77;;;;;;;2.24;89.46;98769.56;5061815;28;20036;-76
2023/03/08 05:29:05;;;;;;;28.17;16.52;;;;;;;2.50;88.30;98783.00;5060991;28;20081;-77
2023/03/08 05:31:31;;;;;;;31.52;16.27;;;;;;;2.65;87.50;98788.31;5070060;28;20032;-77
2023/03/08 05:33:57;;;;;;;28.55;16.58;;;;;;;2.56;87.70;98776.31;5058567;28;20028;-77
2023/03/08 05:36:22;;;;;;;31.00;15.77;;;;;;;2.70;88.13;98783.84;5052528;28;20030;-77
2023/03/08 05:38:52;;;;;;;32.70;20.80;;;;;;;2.84;87.75;98792.19;5060410;28;20522;-75
2023/03/08 05:41:18;;;;;;;34.17;20.42;;;;;;;2.73;87.31;98792.34;5068078;28;20033;-76
2023/03/08 05:43:43;;;;;;;29.77;17.30;;;;;;;2.79;86.97;98796.66;5058681;28;20044;-77
2023/03/08 05:46:17;;;;;;;35.60;16.77;;;;;;;2.81;87.93;98797.16;5063937;28;20075;-77
2023/03/08 05:48:43;;;;;;;27.65;15.60;;;;;;;2.85;87.28;98810.41;5052772;28;20039;-76
2023/03/08 05:51:14;;;;;;;26.13;15.23;;;;;;;2.81;87.89;98813.75;5057382;28;20043;-78
2023/03/08 05:53:41;;;;;;;43.10;15.48;;;;;;;2.87;88.18;98817.25;5083831;28;20119;-76
2023/03/08 05:56:08;;;;;;;28.15;15.30;;;;;;;2.73;89.27;98805.31;5057919;28;20038;-75
2023/03/08 05:58:34;;;;;;;28.25;14.73;;;;;;;2.89;88.20;98812.25;5080253;28;20041;-75
2023/03/08 06:01:20;;;;;;;38.38;18.83;;;;;;;3.09;88.09;98802.81;5060348;28;20064;-74
2023/03/08 06:03:49;;;;;;;28.80;17.10;;;;;;;3.38;86.95;98817.56;5067768;28;20081;-74
2023/03/08 06:06:16;;;;;;;43.55;18.02;;;;;;;3.50;86.73;98815.13;5062152;28;20105;-75
2023/03/08 06:08:42;;;;;;;34.88;18.08;;;;;;;3.79;87.03;98816.81;5057988;28;20028;-74
2023/03/08 06:11:09;;;;;;;36.50;19.05;;;;;;;3.55;87.22;98811.44;5070854;28;20028;-77
2023/03/08 06:13:34;;;;;;;36.03;17.83;;;;;;;3.58;89.44;98812.78;5052992;28;20036;-77
2023/03/08 06:16:01;;;;;;;36.00;18.00;;;;;;;3.96;88.17;98820.91;5064470;28;20048;-77
2023/03/08 06:18:27;;;;;;;25.33;16.15;;;;;;;3.96;87.58;98826.44;5062001;28;20029;-80
2023/03/08 06:21:00;;;;;;;27.90;15.63;;;;;;;4.18;86.89;98828.50;5054335;28;20495;-77
2023/03/08 06:23:27;;;;;;;26.42;15.77;;;;;;;4.61;85.48;98834.81;5075159;28;20028;-81
2023/03/08 06:25:53;;;;;;;27.10;15.10;;;;;;;4.94;84.87;98831.03;5071926;28;20029;-74
2023/03/08 06:28:18;;;;;;;19.83;13.02;;;;;;;5.22;81.27;98828.97;5061525;28;20036;-78
2023/03/08 06:30:45;;;;;;;23.05;13.93;;;;;;;5.43;80.57;98834.84;5065553;28;20045;-78
2023/03/08 06:33:10;;;;;;;26.20;14.18;;;;;;;5.60;80.79;98845.22;5061816;28;20033;-77
2023/03/08 06:35:36;;;;;;;28.17;15.05;;;;;;;5.91;79.50;98849.13;5068438;28;20032;-78
2023/03/08 06:38:01;;;;;;;24.70;14.68;;;;;;;6.04;77.13;98851.03;5071164;28;20039;-77
2023/03/08 06:40:27;;;;;;;23.30;13.60;;;;;;;5.93;76.42;98866.31;5074491;28;20037;-81
2023/03/08 06:42:52;;;;;;;25.52;14.85;;;;;;;5.55;77.87;98862.00;5069933;28;20399;-76
2023/03/08 06:45:18;;;;;;;32.28;13.45;;;;;;;5.72;77.75;98861.28;5081399;28;20025;-75
2023/03/08 06:47:43;;;;;;;32.22;12.88;;;;;;;5.80;77.48;98864.44;5071970;28;20025;-75
2023/03/08 06:50:10;;;;;;;21.63;13.30;;;;;;;6.03;78.15;98868.84;5067049;28;20036;-75
2023/03/08 06:52:36;;;;;;;26.65;13.77;;;;;;;5.82;77.39;98870.50;5059191;28;20029;-75
2023/03/08 06:55:06;;;;;;;27.10;14.98;;;;;;;5.75;78.45;98865.41;5069937;28;20032;-75
2023/03/08 06:57:31;;;;;;;19.90;13.30;;;;;;;5.96;77.80;98879.53;5070954;28;20487;-74
2023/03/08 06:59:57;;;;;;;22.70;14.65;;;;;;;6.28;77.51;98877.59;5063717;28;20036;-74
2023/03/08 07:02:22;;;;;;;35.03;15.35;;;;;;;6.30;77.10;98883.66;5053470;28;20427;-75
2023/03/08 07:04:48;;;;;;;34.80;14.98;;;;;;;6.43;77.81;98878.31;5052725;28;20029;-75
2023/03/08 07:07:14;;;;;;;27.35;13.93;;;;;;;6.83;76.11;98886.56;5067230;28;20463;-75
2023/03/08 07:09:39;;;;;;;21.13;13.95;;;;;;;7.18;75.36;98887.75;5079531;28;20038;-74
2023/03/08 07:12:06;;;;;;;22.27;12.40;;;;;;;7.22;74.79;98880.38;5084989;28;20025;-75
2023/03/08 07:14:31;;;;;;;26.65;13.35;;;;;;;7.52;74.15;98888.91;5062000;28;20572;-75
2023/03/08 07:16:57;;;;;;;25.35;14.65;;;;;;;7.76;74.15;98879.22;5070204;28;20037;-75
2023/03/08 07:19:25;;;;;;;36.70;16.10;;;;;;;7.96;71.97;98872.94;5069853;28;20028;-75
2023/03/08 07:21:50;;;;;;;25.38;15.75;;;;;;;7.71;72.89;98880.19;5073018;28;20111;-75
2023/03/08 07:24:16;;;;;;;27.55;15.73;;;;;;;7.66;74.90;98872.84;5062655;28;20167;-75
2023/03/08 07:26:42;;;;;;;31.08;16.90;;;;;;;8.13;74.04;98874.81;5052334;28;20060;-75
2023/03/08 07:29:07;;;;;;;26.73;15.07;;;;;;;8.11;73.29;98881.91;5072087;28;20028;-75
2023/03/08 07:31:35;;;;;;;26.27;15.70;;;;;;;7.98;72.97;98879.00;5070285;28;20035;-75
2023/03/08 07:34:04;;;;;;;33.60;18.20;;;;;;;8.15;74.57;98880.91;5071933;28;20032;-75
2023/03/08 07:36:29;;;;;;;28.35;16.20;;;;;;;8.48;74.64;98879.47;5071215;28;20024;-75
2023/03/08 07:38:55;;;;;;;25.88;14.68;;;;;;;8.73;71.19;98876.06;5070851;28;20481;-75
2023/03/08 07:41:21;;;;;;;23.08;13.55;;;;;;;8.79;70.75;98885.88;5057538;28;20084;-75
2023/03/08 07:43:46;;;;;;;25.15;15.70;;;;;;;9.20;70.36;98889.06;5053537;28;20407;-75
2023/03/08 07:46:12;;;;;;;21.90;13.75;;;;;;;9.03;69.22;98893.59;5063904;28;20067;-75
2023/03/08 07:48:37;;;;;;;22.20;14.25;;;;;;;9.20;70.01;98881.47;5071570;28;20032;-74
2023/03/08 07:51:09;;;;;;;22.52;13.90;;;;;;;9.66;67.11;98895.56;5068865;28;20043;-75
2023/03/08 07:53:36;;;;;;;30.42;14.25;;;;;;;9.77;67.06;98890.34;5057837;28;20033;-75
2023/03/08 07:56:05;;;;;;;22.65;14.45;;;;;;;10.03;65.74;98883.66;5071453;28;20036;-76
2023/03/08 07:58:30;;;;;;;29.27;17.10;;;;;;;10.22;64.07;98882.31;5069629;28;20060;-74
2023/03/08 08:01:02;;;;;;;24.70;14.10;;;;;;;10.34;64.73;98882.34;5060625;28;20435;-74
2023/03/08 08:03:28;;;;;;;31.55;14.65;;;;;;;10.51;64.62;98886.09;5071269;28;20470;-74
2023/03/08 08:05:54;;;;;;;31.05;15.18;;;;;;;10.64;64.04;98884.13;5068669;28;20036;-76
2023/03/08 08:08:19;;;;;;;34.63;15.20;;;;;;;10.65;63.35;98880.16;5067778;28;20556;-76
2023/03/08 08:10:45;;;;;;;30.60;15.75;;;;;;;10.27;64.18;98881.28;5067614;28;20028;-75
2023/03/08 08:13:10;;;;;;;23.88;13.57;;;;;;;10.47;65.68;98885.97;5072070;28;20021;-75
2023/03/08 08:15:36;;;;;;;29.63;14.18;;;;;;;10.90;62.77;98882.94;5072061;28;20052;-76
2023/03/08 08:18:05;;;;;;;18.10;11.38;;;;;;;11.04;63.47;98890.94;5065656;28;20024;-75
2023/03/08 08:20:30;;;;;;;23.27;11.25;;;;;;;11.22;61.86;98881.13;5055234;28;20463;-76
2023/03/08 08:22:56;;;;;;;35.45;15.70;;;;;;;11.24;61.24;98873.19;5064384;28;20021;-76
2023/03/08 08:25:21;;;;;;;24.85;14.52;;;;;;;11.63;61.74;98883.09;5059869;28;20035;-76
2023/03/08 08:27:48;;;;;;;30.95;20.50;;;;;;;11.79;60.79;98880.31;5071914;28;20086;-76
2023/03/08 08:30:14;;;;;;;43.78;23.08;;;;;;;11.75;58.22;98877.41;5052653;28;20040;-75
2023/03/08 08:32:42;;;;;;;30.15;15.90;;;;;;;12.10;54.75;98883.59;5068248;28;20414;-76
2023/03/08 08:35:10;;;;;;;32.60;18.23;;;;;;;12.44;55.92;98886.88;5066818;28;20399;-76
2023/03/08 08:37:36;;;;;;;17.75;11.93;;;;;;;12.24;52.98;98889.56;5060036;28;20028;-75
2023/03/08 08:40:06;;;;;;;18.55;13.00;;;;;;;12.59;52.14;98866.41;5071416;28;20033;-75
2023/03/08 08:42:32;;;;;;;23.33;14.25;;;;;;;12.75;54.74;98871.19;5070310;28;20115;-75
2023/03/08 08:45:01;;;;;;;20.20;8.85;;;;;;;13.09;51.63;98871.56;5071380;28;20534;-75
2023/03/08 08:47:28;;;;;;;11.30;8.20;;;;;;;13.29;48.83;98868.78;5059257;28;20035;-75
2023/03/08 08:49:57;;;;;;;20.70;9.07;;;;;;;13.50;48.13;98873.25;5056609;28;20036;-75
2023/03/08 08:52:22;;;;;;;11.98;6.75;;;;;;;13.68;47.55;98851.16;5077230;28;20037;-75
2023/03/08 08:54:48;;;;;;;12.40;5.50;;;;;;;13.99;46.65;98852.13;5069319;28;20047;-75
2023/03/08 08:57:14;;;;;;;7.80;4.68;;;;;;;14.01;45.76;98841.34;5071254;28;20024;-75
2023/03/08 08:59:39;;;;;;;6.78;4.80;;;;;;;14.37;44.70;98836.34;5070460;28;20036;-75
2023/03/08 09:02:09;;;;;;;7.28;4.90;;;;;;;14.60;43.70;98832.69;5064830;28;20032;-75
2023/03/08 09:04:34;;;;;;;5.88;4.70;;;;;;;14.63;40.45;98825.47;5067994;28;20117;-75
2023/03/08 09:07:00;;;;;;;6.38;4.10;;;;;;;14.79;40.41;98822.53;5069227;28;20024;-74
2023/03/08 09:09:28;;;;;;;6.93;3.55;;;;;;;14.77;40.44;98836.97;5072619;28;20103;-75
2023/03/08 09:11:54;;;;;;;5.75;3.22;;;;;;;15.15;40.71;98837.94;5068118;28;20032;-76
2023/03/08 09:14:20;;;;;;;8.48;3.85;;;;;;;15.57;39.33;98829.59;5075920;28;20127;-76
2023/03/08 09:16:46;;;;;;;8.10;4.03;;;;;;;15.10;40.12;98821.34;5051554;28;20037;-75
2023/03/08 09:19:12;;;;;;;12.65;4.90;;;;;;;15.38;39.83;98834.19;5058562;28;20055;-75
2023/03/08 09:21:38;;;;;;;5.82;3.65;;;;;;;15.61;40.04;98838.09;5068250;28;20037;-76
2023/03/08 09:24:08;;;;;;;8.82;4.38;;;;;;;15.63;39.49;98833.69;5051496;28;20028;-75
2023/03/08 09:26:34;;;;;;;11.32;3.92;;;;;;;15.49;40.08;98822.22;5059890;28;20033;-75
2023/03/08 09:29:04;;;;;;;12.20;5.78;;;;;;;15.50;42.39;98830.31;5068185;28;20036;-76
2023/03/08 09:31:31;;;;;;;10.75;5.00;;;;;;;15.70;40.86;98830.94;5068345;28;20071;-77
2023/03/08 09:33:57;;;;;;;9.55;5.28;;;;;;;15.80;40.21;98826.59;5084117;28;20442;-76
2023/03/08 09:36:22;;;;;;;9.20;4.97;;;;;;;16.01;40.16;98825.25;5063948;28;20070;-76
2023/03/08 09:38:49;;;;;;;15.10;4.47;;;;;;;16.29;39.07;98826.72;5055909;28;20035;-75
2023/03/08 09:41:33;;;;;;;5.40;4.22;;;;;;;16.50;37.29;98822.44;5085562;28;20104;-76
2023/03/08 09:44:42;;;;;;;7.68;3.40;;;;;;;16.21;36.63;98820.19;5061413;28;20108;-75
2023/03/08 09:47:29;;;;;;;6.45;4.20;;;;;;;16.26;34.44;98817.03;5061979;28;20029;-75
2023/03/08 09:50:03;;;;;;;10.27;7.93;;;;;;;16.37;34.73;98824.78;5069572;28;20036;-75
2023/03/08 09:52:39;;;;;;;5.35;3.30;;;;;;;16.52;35.60;98817.22;5069636;28;20032;-74
2023/03/08 09:55:14;;;;;;;4.22;3.35;;;;;;;16.53;35.42;98816.84;5071591;28;20077;-75
2023/03/08 09:57:48;;;;;;;26.38;19.40;;;;;;;16.55;35.53;98824.91;5087836;28;20050;-76
2023/03/08 10:00:27;;;;;;;15.55;7.35;;;;;;;16.79;34.92;98820.66;5067986;28;20021;-76
2023/03/08 10:03:23;;;;;;;16.17;9.55;;;;;;;17.01;34.37;98818.00;5065494;28;20489;-74
2023/03/08 10:05:59;;;;;;;8.48;5.00;;;;;;;17.22;34.55;98803.16;5067434;28;20469;-74
2023/03/08 10:08:30;;;;;;;42.58;27.85;;;;;;;16.93;33.95;98807.81;5072868;28;20403;-75
2023/03/08 10:11:03;;;;;;;;;;;;;;;17.21;33.36;98807.19;5066969;28;20037;-75
2023/03/08 10:13:33;;;;;;;4.85;3.25;;;;;;;17.15;32.11;98808.78;5070969;28;19912;-74
2023/03/08 10:16:26;;;;;;;7.88;2.75;;;;;;;16.90;34.10;98800.97;5069019;28;20143;-75
2023/03/08 10:19:01;;;;;;;4.50;2.90;;;;;;;17.17;35.88;98797.06;5074230;28;20415;-75
2023/03/08 10:21:30;;;;;;;4.63;3.20;;;;;;;17.31;34.86;98790.69;5062688;28;20028;-75
2023/03/08 10:24:10;;;;;;;6.18;4.15;;;;;;;17.37;35.17;98789.06;5060257;28;20033;-75
2023/03/08 10:26:35;;;;;;;4.10;2.88;;;;;;;17.58;34.72;98798.84;5059036;28;20024;-75
2023/03/08 10:29:00;;;;;;;5.38;3.40;;;;;;;17.66;33.92;98789.97;5073172;28;20368;-75
2023/03/08 10:31:29;;;;;;;4.85;3.08;;;;;;;17.64;33.92;98783.13;5070280;28;20411;-75
2023/03/08 10:34:15;;;;;;;6.15;3.78;;;;;;;17.62;33.30;98788.38;5060104;28;20024;-75
2023/03/08 10:36:48;;;;;;;6.50;4.20;;;;;;;17.83;33.21;98779.91;5055685;28;20037;-75
2023/03/08 10:39:15;;;;;;;5.18;2.97;;;;;;;17.90;33.20;98775.50;5063635;28;20028;-75
2023/03/08 10:42:05;;;;;;;5.65;2.97;;;;;;;17.87;31.16;98779.94;5062417;28;20032;-75
2023/03/08 10:44:52;;;;;;;4.43;2.88;;;;;;;18.04;30.49;98763.41;5070924;28;20064;-75
2023/03/08 10:47:28;;;;;;;3.60;2.42;;;;;;;18.04;31.33;98771.88;5058385;28;20479;-75
2023/03/08 10:50:18;;;;;;;3.35;2.30;;;;;;;18.44;30.80;98761.38;5067430;28;20451;-75
2023/03/08 10:52:46;;;;;;;4.60;2.38;;;;;;;18.61;31.97;98758.94;5070215;28;20035;-75
2023/03/08 10:55:16;;;;;;;8.05;2.20;;;;;;;18.37;32.34;98759.38;5060496;28;20482;-75
2023/03/08 10:58:10;;;;;;;2.03;1.73;;;;;;;18.25;31.50;98754.13;5072728;28;20069;-75
2023/03/08 11:00:43;;;;;;;2.53;2.20;;;;;;;17.80;30.86;98746.00;5059668;28;20040;-75
2023/03/08 11:03:20;;;;;;;4.70;2.47;;;;;;;17.77;31.51;98747.59;5064686;28;20032;-74
2023/03/08 11:06:03;;;;;;;2.97;2.42;;;;;;;17.47;31.76;98743.06;5090366;28;20035;-76
2023/03/08 11:08:32;;;;;;;2.83;2.13;;;;;;;17.18;32.03;98737.34;5061282;28;20035;-76
2023/03/08 11:11:04;;;;;;;5.28;2.80;;;;;;;17.22;32.27;98732.50;5062917;28;20555;-86
2023/03/08 11:13:34;;;;;;;2.63;1.98;;;;;;;17.72;31.80;98724.56;5065472;28;20431;-77
2023/03/08 11:16:45;;;;;;;5.95;2.03;;;;;;;18.08;31.17;98730.28;5066728;28;20057;-78
2023/03/08 11:19:11;;;;;;;5.38;2.03;;;;;;;18.44;30.53;98707.59;5011233;28;20083;-80
2023/03/08 11:22:06;;;;;;;2.35;1.90;;;;;;;18.67;32.11;98712.78;5022742;28;20112;-78
2023/03/08 11:24:50;;;;;;;6.05;2.75;;;;;;;18.40;31.07;98698.28;5050558;28;20134;-79
2023/03/08 11:27:53;;;;;;;7.60;2.20;;;;;;;17.81;31.07;98702.34;5063973;28;20036;-80
2023/03/08 11:30:22;;;;;;;3.75;2.10;;;;;;;18.04;31.05;98699.16;5059816;28;20017;-79
2023/03/08 11:32:56;;;;;;;3.70;2.22;;;;;;;18.05;31.79;98692.28;5061947;28;20028;-80